createdAt,value
2023-02-06T00:01:00.719Z,38.85
2023-02-06T00:03:28.975Z,32.75
2023-02-06T00:05:59.430Z,43.55
2023-02-06T00:08:28.230Z,38.63
2023-02-06T00:10:56.559Z,33.08
2023-02-06T00:13:24.695Z,39.10
2023-02-06T00:15:52.752Z,47.05
2023-02-06T00:18:22.176Z,31.65
2023-02-06T00:20:50.227Z,42.08
2023-02-06T00:23:18.329Z,43.58
2023-02-06T00:25:46.753Z,41.25
2023-02-06T00:28:15.097Z,38.72
2023-02-06T00:30:46.579Z,30.25
2023-02-06T00:33:14.875Z,35.25
2023-02-06T00:35:44.250Z,30.48
2023-02-06T00:38:12.691Z,39.58
2023-02-06T00:40:40.823Z,38.75
2023-02-06T00:43:20.374Z,39.85
2023-02-06T00:45:52.465Z,35.40
2023-02-06T00:48:20.619Z,32.80
2023-02-06T00:50:51.155Z,33.55
2023-02-06T00:53:19.783Z,30.63
2023-02-06T00:55:47.883Z,35.05
2023-02-06T00:58:16.137Z,34.53
2023-02-06T01:00:44.851Z,32.58
2023-02-06T01:03:13.125Z,29.58
2023-02-06T01:05:41.297Z,37.22
2023-02-06T01:08:10.872Z,37.70
2023-02-06T01:10:41.785Z,40.50
2023-02-06T01:13:09.982Z,43.90
2023-02-06T01:15:38.088Z,35.88
2023-02-06T01:18:06.435Z,40.08
2023-02-06T01:20:34.603Z,32.45
2023-02-06T01:23:04.807Z,31.35
2023-02-06T01:25:34.651Z,32.80
2023-02-06T01:28:03.101Z,45.13
2023-02-06T01:30:31.508Z,33.38
2023-02-06T01:32:59.729Z,41.90
2023-02-06T01:35:29.623Z,41.45
2023-02-06T01:37:57.662Z,40.30
2023-02-06T01:40:25.841Z,27.08
2023-02-06T01:42:55.254Z,37.90
2023-02-06T01:45:45.598Z,42.20
2023-02-06T01:48:19.913Z,32.53
2023-02-06T01:50:51.754Z,33.25
2023-02-06T01:53:22.318Z,32.85
2023-02-06T01:55:52.432Z,30.40
2023-02-06T01:58:29.098Z,29.08
2023-02-06T02:01:00.369Z,28.58
2023-02-06T02:03:29.830Z,33.30
2023-02-06T02:06:02.421Z,25.33
2023-02-06T02:08:34.799Z,32.85
2023-02-06T02:11:04.472Z,32.25
2023-02-06T02:13:34.376Z,40.33
2023-02-06T02:16:10.607Z,37.50
2023-02-06T02:18:57.500Z,32.50
2023-02-06T02:21:58.077Z,37.05
2023-02-06T02:24:40.311Z,35.55
2023-02-06T02:27:24.451Z,30.02
2023-02-06T02:33:13.990Z,36.97
2023-02-06T02:35:51.961Z,42.95
2023-02-06T02:38:28.612Z,33.63
2023-02-06T02:41:04.258Z,28.55
2023-02-06T02:43:38.276Z,38.03
2023-02-06T02:46:15.545Z,35.45
2023-02-06T02:48:46.796Z,32.33
2023-02-06T02:51:17.407Z,35.53
2023-02-06T02:53:45.550Z,36.13
2023-02-06T02:56:18.661Z,29.40
2023-02-06T02:58:50.313Z,41.03
2023-02-06T03:01:27.900Z,30.65
2023-02-06T03:03:59.600Z,38.80
2023-02-06T03:06:52.757Z,36.63
2023-02-06T03:09:32.751Z,34.78
2023-02-06T03:12:11.417Z,29.20
2023-02-06T03:14:46.692Z,47.47
2023-02-06T03:17:20.493Z,43.38
2023-02-06T03:19:54.227Z,54.97
2023-02-06T03:22:25.615Z,41.22
2023-02-06T03:24:55.041Z,43.75
2023-02-06T03:27:32.092Z,48.05
2023-02-06T03:30:01.925Z,40.65
2023-02-06T03:32:35.521Z,38.28
2023-02-06T03:35:09.001Z,33.10
2023-02-06T03:37:39.105Z,40.72
2023-02-06T03:40:09.540Z,46.13
2023-02-06T03:42:40.665Z,43.00
2023-02-06T03:45:15.420Z,51.75
2023-02-06T03:47:44.893Z,45.13
2023-02-06T03:50:14.823Z,41.65
2023-02-06T03:52:48.259Z,40.58
2023-02-06T03:55:19.394Z,38.60
2023-02-06T03:57:51.378Z,35.33
2023-02-06T04:00:19.512Z,46.33
2023-02-06T04:02:49.081Z,50.05
2023-02-06T04:05:19.163Z,39.22
2023-02-06T04:07:48.524Z,41.78
2023-02-06T04:10:16.859Z,40.58
2023-02-06T04:12:44.952Z,34.47
2023-02-06T04:15:12.988Z,36.63
2023-02-06T04:17:53.902Z,33.97
2023-02-06T04:20:25.865Z,36.85
2023-02-06T04:22:55.303Z,34.42
2023-02-06T04:25:23.308Z,42.05
2023-02-06T04:27:51.456Z,36.30
2023-02-06T04:30:19.722Z,36.30
2023-02-06T04:32:47.940Z,43.92
2023-02-06T04:35:16.010Z,41.58
2023-02-06T04:37:44.014Z,39.47
2023-02-06T04:40:14.093Z,39.75
2023-02-06T04:42:42.110Z,49.60
2023-02-06T04:45:10.903Z,46.88
2023-02-06T04:47:39.295Z,40.25
2023-02-06T04:50:08.138Z,50.75
2023-02-06T04:52:38.545Z,46.50
2023-02-06T04:55:07.199Z,31.73
2023-02-06T04:57:36.606Z,41.80
2023-02-06T05:00:05.343Z,33.72
2023-02-06T05:02:37.512Z,40.03
2023-02-06T05:05:06.810Z,48.83
2023-02-06T05:07:35.050Z,38.40
2023-02-06T05:10:03.531Z,44.35
2023-02-06T05:12:31.657Z,37.00
2023-02-06T05:15:01.056Z,39.30
2023-02-06T05:17:29.084Z,34.90
2023-02-06T05:19:58.369Z,44.63
2023-02-06T05:22:26.958Z,34.80
2023-02-06T05:24:55.074Z,48.13
2023-02-06T05:27:23.243Z,39.70
2023-02-06T05:29:51.304Z,36.47
2023-02-06T05:32:20.786Z,35.88
2023-02-06T05:34:48.816Z,35.10
2023-02-06T05:37:16.922Z,37.67
2023-02-06T05:39:44.994Z,41.95
2023-02-06T05:42:12.955Z,33.67
2023-02-06T05:44:41.053Z,34.10
2023-02-06T05:47:09.072Z,32.30
2023-02-06T05:49:38.696Z,38.30
2023-02-06T05:52:06.708Z,44.90
2023-02-06T05:54:34.855Z,38.47
2023-02-06T05:57:03.415Z,40.30
2023-02-06T05:59:31.875Z,36.75
2023-02-06T06:02:00.129Z,41.75
2023-02-06T06:04:28.367Z,41.15
2023-02-06T06:06:57.808Z,39.78
2023-02-06T06:09:25.987Z,37.83
2023-02-06T06:11:54.331Z,41.25
2023-02-06T06:14:22.458Z,43.75
2023-02-06T06:16:50.602Z,39.67
2023-02-06T06:19:18.838Z,42.10
2023-02-06T06:21:46.905Z,45.72
2023-02-06T06:24:16.368Z,41.80
2023-02-06T06:26:44.610Z,40.58
2023-02-06T06:29:12.846Z,39.67
2023-02-06T06:31:41.109Z,45.88
2023-02-06T06:34:09.216Z,41.03
2023-02-06T06:36:37.298Z,34.60
2023-02-06T06:39:05.453Z,41.33
2023-02-06T06:41:34.840Z,39.15
2023-02-06T06:44:02.933Z,43.75
2023-02-06T06:46:31.030Z,41.60
2023-02-06T06:48:59.185Z,44.42
2023-02-06T06:51:29.311Z,46.45
2023-02-06T06:53:57.377Z,41.83
2023-02-06T06:56:26.885Z,38.17
2023-02-06T06:58:56.453Z,43.72
2023-02-06T07:01:24.745Z,41.95
2023-02-06T07:03:52.859Z,36.00
2023-02-06T07:06:21.000Z,38.33
2023-02-06T07:08:49.173Z,34.58
2023-02-06T07:11:18.504Z,38.90
2023-02-06T07:13:47.052Z,41.42
2023-02-06T07:16:16.580Z,39.60
2023-02-06T07:18:44.673Z,34.35
2023-02-06T07:21:14.165Z,32.08
2023-02-06T07:23:42.271Z,30.40
2023-02-06T07:26:10.359Z,39.85
2023-02-06T07:28:38.525Z,29.20
2023-02-06T07:31:08.510Z,37.67
2023-02-06T07:33:38.041Z,31.60
2023-02-06T07:36:06.482Z,33.40
2023-02-06T07:38:34.493Z,37.58
2023-02-06T07:41:03.353Z,33.90
2023-02-06T07:43:32.063Z,38.63
2023-02-06T07:46:01.902Z,30.55
2023-02-06T07:48:30.653Z,33.85
2023-02-06T07:51:06.183Z,31.73
2023-02-06T07:56:02.833Z,34.42
2023-02-06T07:58:30.860Z,32.22
2023-02-06T08:01:00.652Z,34.50
2023-02-06T08:03:28.727Z,28.58
2023-02-06T08:05:56.851Z,30.90
2023-02-06T08:08:26.850Z,35.17
2023-02-06T08:10:54.958Z,38.50
2023-02-06T08:13:23.031Z,31.30
2023-02-06T08:15:51.202Z,29.25
2023-02-06T08:18:19.261Z,26.35
2023-02-06T08:20:47.346Z,27.73
2023-02-06T08:23:15.427Z,34.08
2023-02-06T08:25:44.816Z,37.88
2023-02-06T08:28:14.996Z,29.30
2023-02-06T08:30:43.208Z,29.85
2023-02-06T08:33:11.278Z,37.97
2023-02-06T08:35:39.336Z,30.00
2023-02-06T08:38:07.379Z,29.20
2023-02-06T08:40:35.416Z,28.88
2023-02-06T08:43:04.794Z,24.23
2023-02-06T08:45:32.940Z,26.25
2023-02-06T08:48:01.013Z,28.25
2023-02-06T08:50:29.048Z,32.67
2023-02-06T08:52:57.156Z,30.08
2023-02-06T08:55:25.491Z,29.75
2023-02-06T08:57:53.567Z,32.30
2023-02-06T09:00:23.575Z,30.42
2023-02-06T09:02:53.355Z,28.38
2023-02-06T09:05:21.669Z,29.88
2023-02-06T09:07:50.665Z,30.90
2023-02-06T09:10:27.182Z,33.30
2023-02-06T09:12:56.066Z,29.60
2023-02-06T09:15:25.487Z,28.92
2023-02-06T09:17:53.691Z,28.42
2023-02-06T09:20:22.560Z,31.20
2023-02-06T09:22:50.674Z,34.88
2023-02-06T09:25:18.790Z,26.30
2023-02-06T09:27:47.238Z,30.23
2023-02-06T09:30:16.031Z,23.50
2023-02-06T09:32:45.670Z,34.38
2023-02-06T09:35:13.722Z,26.55
2023-02-06T09:37:41.886Z,28.38
2023-02-06T09:40:13.365Z,28.55
2023-02-06T09:42:42.527Z,31.58
2023-02-06T09:45:15.334Z,22.70
2023-02-06T09:47:47.684Z,26.60
2023-02-06T09:50:25.214Z,26.95
2023-02-06T09:53:03.991Z,23.70
2023-02-06T09:55:39.788Z,24.60
2023-02-06T09:58:20.291Z,27.20
2023-02-06T10:00:53.022Z,24.42
2023-02-06T10:03:44.980Z,22.38
2023-02-06T10:06:19.352Z,24.90
2023-02-06T10:08:54.882Z,26.48
2023-02-06T10:11:32.383Z,23.05
2023-02-06T10:14:05.010Z,25.83
2023-02-06T10:16:39.584Z,29.27
2023-02-06T10:19:14.545Z,24.40
2023-02-06T10:21:47.300Z,27.48
2023-02-06T10:24:24.878Z,19.63
2023-02-06T10:26:54.580Z,23.35
2023-02-06T10:29:27.375Z,25.02
2023-02-06T10:32:05.328Z,24.48
2023-02-06T10:34:48.380Z,25.27
2023-02-06T10:37:34.561Z,24.80
2023-02-06T10:40:26.429Z,23.98
2023-02-06T10:42:59.133Z,20.52
2023-02-06T10:45:39.908Z,21.85
2023-02-06T10:48:18.879Z,26.20
2023-02-06T10:50:51.903Z,24.52
2023-02-06T10:53:24.365Z,22.80
2023-02-06T10:55:56.505Z,26.40
2023-02-06T10:58:28.715Z,22.42
2023-02-06T11:00:58.768Z,24.65
2023-02-06T11:03:31.900Z,24.77
2023-02-06T11:06:03.844Z,29.25
2023-02-06T11:08:34.600Z,23.92
2023-02-06T11:11:18.745Z,24.58
2023-02-06T11:13:49.778Z,24.98
2023-02-06T11:16:23.876Z,22.10
2023-02-06T11:18:53.399Z,28.17
2023-02-06T11:21:51.603Z,26.65
2023-02-06T11:24:22.617Z,37.00
2023-02-06T11:26:55.671Z,27.77
2023-02-06T11:29:27.348Z,25.67
2023-02-06T11:31:58.595Z,23.05
2023-02-06T11:34:32.237Z,28.65
2023-02-06T11:37:03.917Z,29.45
2023-02-06T11:39:34.253Z,30.27
2023-02-06T11:42:05.535Z,26.95
2023-02-06T11:44:39.017Z,30.85
2023-02-06T11:47:30.310Z,19.92
2023-02-06T11:49:58.830Z,22.05
2023-02-06T11:52:34.414Z,20.17
2023-02-06T11:57:33.627Z,29.05
2023-02-06T12:00:20.229Z,21.83
2023-02-06T12:03:00.380Z,15.10
2023-02-06T12:05:34.007Z,24.42
2023-02-06T12:08:07.926Z,19.90
2023-02-06T12:10:40.569Z,23.27
2023-02-06T12:13:16.688Z,22.25
2023-02-06T12:15:48.206Z,21.75
2023-02-06T12:18:21.649Z,22.60
2023-02-06T12:20:55.668Z,20.08
2023-02-06T12:23:29.588Z,18.30
2023-02-06T12:26:01.681Z,20.60
2023-02-06T12:28:36.962Z,22.08
2023-02-06T12:31:11.160Z,18.23
2023-02-06T12:33:45.645Z,18.23
2023-02-06T12:36:17.519Z,23.35
2023-02-06T12:38:51.702Z,41.38
2023-02-06T12:41:48.414Z,33.50
2023-02-06T12:44:27.986Z,42.85
2023-02-06T12:46:59.676Z,31.00
2023-02-06T12:49:32.375Z,23.00
2023-02-06T12:52:07.030Z,35.38
2023-02-06T12:54:40.651Z,36.67
2023-02-06T12:57:16.904Z,33.28
2023-02-06T13:00:14.014Z,29.73
2023-02-06T13:03:03.583Z,36.28
2023-02-06T13:05:37.088Z,41.47
2023-02-06T13:08:08.877Z,38.55
2023-02-06T13:10:39.183Z,35.28
2023-02-06T13:13:07.642Z,39.25
2023-02-06T13:15:39.452Z,30.80
2023-02-06T13:18:44.574Z,30.10
2023-02-06T13:21:16.289Z,25.42
2023-02-06T13:23:51.238Z,30.02
2023-02-06T13:26:40.681Z,32.22
2023-02-06T13:29:25.228Z,40.10
2023-02-06T13:32:41.941Z,29.30
2023-02-06T13:35:24.982Z,21.98
2023-02-06T13:38:11.661Z,26.40
2023-02-06T13:40:40.081Z,27.92
2023-02-06T13:43:18.564Z,30.75
2023-02-06T13:45:50.566Z,28.13
2023-02-06T13:48:51.048Z,33.10
2023-02-06T13:51:46.455Z,29.95
2023-02-06T13:54:52.387Z,28.23
2023-02-06T13:57:52.443Z,27.40
2023-02-06T14:00:24.875Z,29.02
2023-02-06T14:02:56.311Z,23.67
2023-02-06T14:05:31.145Z,27.83
2023-02-06T14:08:07.172Z,25.42
2023-02-06T14:11:09.131Z,26.70
2023-02-06T14:13:50.657Z,24.65
2023-02-06T14:16:38.233Z,22.98
2023-02-06T14:19:13.569Z,20.02
2023-02-06T14:21:51.132Z,26.77
2023-02-06T14:24:50.990Z,17.33
2023-02-06T14:27:33.060Z,22.05
2023-02-06T14:30:08.278Z,20.85
2023-02-06T14:32:45.531Z,16.67
2023-02-06T14:35:35.748Z,22.60
2023-02-06T14:38:31.515Z,25.73
2023-02-06T14:41:01.890Z,27.85
2023-02-06T14:43:33.267Z,13.85
2023-02-06T14:46:08.104Z,18.90
2023-02-06T14:48:40.472Z,17.65
2023-02-06T14:51:18.936Z,13.32
2023-02-06T14:53:54.001Z,13.50
2023-02-06T14:56:27.692Z,15.32
2023-02-06T14:58:56.848Z,20.42
2023-02-06T15:01:27.759Z,15.98
2023-02-06T15:04:12.341Z,16.20
2023-02-06T15:06:42.755Z,17.63
2023-02-06T15:09:25.034Z,20.40
2023-02-06T15:11:54.791Z,22.58
2023-02-06T15:14:25.505Z,17.92
2023-02-06T15:16:56.761Z,23.95
2023-02-06T15:19:33.724Z,28.48
2023-02-06T15:22:15.438Z,19.48
2023-02-06T15:24:54.411Z,21.10
2023-02-06T15:27:28.741Z,22.10
2023-02-06T15:29:57.465Z,27.63
2023-02-06T15:32:29.669Z,23.40
2023-02-06T15:35:02.070Z,26.92
2023-02-06T15:37:32.829Z,30.20
2023-02-06T15:40:06.434Z,24.50
2023-02-06T15:42:34.737Z,28.52
2023-02-06T15:45:03.050Z,33.25
2023-02-06T15:47:32.033Z,23.35
2023-02-06T15:50:01.516Z,24.33
2023-02-06T15:52:36.179Z,25.95
2023-02-06T15:55:05.565Z,20.90
2023-02-06T15:57:36.409Z,21.05
2023-02-06T16:00:09.961Z,21.40
2023-02-06T16:02:41.700Z,28.35
2023-02-06T16:05:24.824Z,28.73
2023-02-06T16:07:53.243Z,26.27
2023-02-06T16:10:24.551Z,20.02
2023-02-06T16:12:53.520Z,27.17
2023-02-06T16:15:28.948Z,30.60
2023-02-06T16:17:58.314Z,32.70
2023-02-06T16:20:33.960Z,28.27
2023-02-06T16:25:49.434Z,27.85
2023-02-06T16:28:23.119Z,29.95
2023-02-06T16:30:56.847Z,21.77
2023-02-06T16:33:33.387Z,24.08
2023-02-06T16:36:03.521Z,28.65
2023-02-06T16:38:32.088Z,28.50
2023-02-06T16:41:00.583Z,23.63
2023-02-06T16:43:31.642Z,34.08
2023-02-06T16:46:02.255Z,32.10
2023-02-06T16:48:30.518Z,31.65
2023-02-06T16:51:00.127Z,27.55
2023-02-06T16:53:30.117Z,28.75
2023-02-06T16:55:58.314Z,39.10
2023-02-06T16:58:28.439Z,31.35
2023-02-06T17:00:56.628Z,27.67
2023-02-06T17:03:25.388Z,32.17
2023-02-06T17:05:54.639Z,32.97
2023-02-06T17:08:25.524Z,30.15
2023-02-06T17:10:54.933Z,28.65
2023-02-06T17:13:24.778Z,39.03
2023-02-06T17:15:53.374Z,32.08
2023-02-06T17:18:23.108Z,33.65
2023-02-06T17:20:52.907Z,35.65
2023-02-06T17:23:21.622Z,33.08
2023-02-06T17:25:50.842Z,33.83
2023-02-06T17:28:21.452Z,36.50
2023-02-06T17:30:50.801Z,34.60
2023-02-06T17:33:19.141Z,32.65
2023-02-06T17:35:49.222Z,29.50
2023-02-06T17:38:17.307Z,32.85
2023-02-06T17:40:45.611Z,26.58
2023-02-06T17:43:13.764Z,27.17
2023-02-06T17:45:43.493Z,26.38
2023-02-06T17:48:11.678Z,31.08
2023-02-06T17:50:41.427Z,23.88
2023-02-06T17:53:12.542Z,26.10
2023-02-06T17:55:41.081Z,28.15
2023-02-06T17:58:09.274Z,20.52
2023-02-06T18:00:37.845Z,23.58
2023-02-06T18:03:07.589Z,24.00
2023-02-06T18:05:35.999Z,18.77
2023-02-06T18:08:04.194Z,18.48
2023-02-06T18:10:32.234Z,22.30
2023-02-06T18:13:00.252Z,20.42
2023-02-06T18:15:30.373Z,23.90
2023-02-06T18:17:59.971Z,17.65
2023-02-06T18:20:29.417Z,18.10
2023-02-06T18:22:57.673Z,20.13
2023-02-06T18:25:25.819Z,18.98
2023-02-06T18:27:53.924Z,22.77
2023-02-06T18:30:22.217Z,17.15
2023-02-06T18:32:50.369Z,18.98
2023-02-06T18:35:19.848Z,18.88
2023-02-06T18:37:50.041Z,19.30
2023-02-06T18:40:18.279Z,22.45
2023-02-06T18:42:55.136Z,23.13
2023-02-06T18:45:24.826Z,18.88
2023-02-06T18:47:53.190Z,21.90
2023-02-06T18:50:22.226Z,18.23
2023-02-06T18:52:52.098Z,17.42
2023-02-06T18:55:20.750Z,18.58
2023-02-06T18:57:49.162Z,18.55
2023-02-06T19:00:19.032Z,19.55
2023-02-06T19:02:47.101Z,19.30
2023-02-06T19:05:15.597Z,18.50
2023-02-06T19:07:43.682Z,18.70
2023-02-06T19:10:16.240Z,22.23
2023-02-06T19:12:44.464Z,21.83
2023-02-06T19:15:14.383Z,20.25
2023-02-06T19:17:42.706Z,20.92
2023-02-06T19:20:12.403Z,28.23
2023-02-06T19:22:40.555Z,22.73
2023-02-06T19:25:12.597Z,26.52
2023-02-06T19:27:43.710Z,22.52
2023-02-06T19:30:13.561Z,23.58
2023-02-06T19:32:41.738Z,25.65
2023-02-06T19:35:11.909Z,20.58
2023-02-06T19:37:40.153Z,25.85
2023-02-06T19:40:08.859Z,26.88
2023-02-06T19:42:37.060Z,25.65
2023-02-06T19:45:07.309Z,23.17
2023-02-06T19:47:35.955Z,27.25
2023-02-06T19:50:03.998Z,21.75
2023-02-06T19:52:32.499Z,25.95
2023-02-06T19:55:00.544Z,22.67
2023-02-06T19:57:28.586Z,19.67
2023-02-06T19:59:56.864Z,22.60
2023-02-06T20:02:26.314Z,26.02
2023-02-06T20:04:54.458Z,23.70
2023-02-06T20:07:22.607Z,24.70
2023-02-06T20:09:51.147Z,19.13
2023-02-06T20:12:19.172Z,23.15
2023-02-06T20:14:47.290Z,27.27
2023-02-06T20:17:17.311Z,26.70
2023-02-06T20:19:46.770Z,33.15
2023-02-06T20:22:14.844Z,30.05
2023-02-06T20:24:42.965Z,28.88
2023-02-06T20:27:12.666Z,38.08
2023-02-06T20:29:42.726Z,28.35
2023-02-06T20:32:12.051Z,32.92
2023-02-06T20:34:40.222Z,33.65
2023-02-06T20:37:09.744Z,34.45
2023-02-06T20:39:38.142Z,38.25
2023-02-06T20:42:06.317Z,41.85
2023-02-06T20:44:34.450Z,44.72
2023-02-06T20:47:02.723Z,52.75
2023-02-06T20:49:31.518Z,50.92
2023-02-06T20:51:59.768Z,49.72
2023-02-06T20:54:30.820Z,42.50
2023-02-06T20:57:00.329Z,46.45
2023-02-06T20:59:28.391Z,45.35
2023-02-06T21:01:56.605Z,50.78
2023-02-06T21:04:24.902Z,44.10
2023-02-06T21:06:52.909Z,43.90
2023-02-06T21:09:21.010Z,39.58
2023-02-06T21:11:51.091Z,36.13
2023-02-06T21:14:20.246Z,40.15
2023-02-06T21:16:48.570Z,39.67
2023-02-06T21:19:18.980Z,37.42
2023-02-06T21:21:47.132Z,39.05
2023-02-06T21:24:16.246Z,37.33
2023-02-06T21:26:45.099Z,32.20
2023-02-06T21:29:16.018Z,29.17
2023-02-06T21:31:44.695Z,33.65
2023-02-06T21:34:14.840Z,33.88
2023-02-06T21:36:43.289Z,31.38
2023-02-06T21:39:12.122Z,34.85
2023-02-06T21:41:40.247Z,29.90
2023-02-06T21:44:08.294Z,31.05
2023-02-06T21:46:38.005Z,28.55
2023-02-06T21:49:09.177Z,27.88
2023-02-06T21:51:37.212Z,34.83
2023-02-06T21:54:05.526Z,29.83
2023-02-06T21:56:33.590Z,34.20
2023-02-06T21:59:01.650Z,37.03
2023-02-06T22:01:33.150Z,31.80
2023-02-06T22:04:03.749Z,31.52
2023-02-06T22:06:32.079Z,33.47
2023-02-06T22:09:07.555Z,37.35
2023-02-06T22:14:06.633Z,37.55
2023-02-06T22:16:35.106Z,36.05
2023-02-06T22:19:04.907Z,37.78
2023-02-06T22:21:34.157Z,36.38
2023-02-06T22:24:07.381Z,34.25
2023-02-06T22:26:38.585Z,32.63
2023-02-06T22:29:08.366Z,37.67
2023-02-06T22:31:37.453Z,38.80
2023-02-06T22:34:11.758Z,32.90
2023-02-06T22:36:40.195Z,38.92
2023-02-06T22:39:12.449Z,31.90
2023-02-06T22:41:42.136Z,30.38
2023-02-06T22:44:11.577Z,33.22
2023-02-06T22:46:40.789Z,33.60
2023-02-06T22:49:11.399Z,32.70
2023-02-06T22:51:40.955Z,34.00
2023-02-06T22:54:10.347Z,31.77
2023-02-06T22:56:41.039Z,38.58
2023-02-06T22:59:11.063Z,38.75
2023-02-06T23:01:42.129Z,35.00
2023-02-06T23:04:15.257Z,39.30
2023-02-06T23:06:44.466Z,34.55
2023-02-06T23:09:15.902Z,34.85
2023-02-06T23:11:44.722Z,36.15
2023-02-06T23:14:13.872Z,38.53
2023-02-06T23:16:42.590Z,38.25
2023-02-06T23:19:13.390Z,30.65
2023-02-06T23:21:43.233Z,39.03
2023-02-06T23:24:12.285Z,32.60
2023-02-06T23:26:42.823Z,34.72
2023-02-06T23:29:15.689Z,35.40
2023-02-06T23:31:44.191Z,34.35
2023-02-06T23:34:13.762Z,34.75
2023-02-06T23:36:42.043Z,32.72
2023-02-06T23:39:11.714Z,32.90
2023-02-06T23:41:39.793Z,31.55
2023-02-06T23:44:09.572Z,31.23
2023-02-06T23:46:39.789Z,29.13
2023-02-06T23:49:20.916Z,29.65
2023-02-06T23:51:49.047Z,34.10
2023-02-06T23:54:17.291Z,31.45
2023-02-06T23:56:45.439Z,37.78
2023-02-06T23:59:14.301Z,30.40
